Time;durP1;ratioP1;P1;durP2;ratioP2;P2;SDS_P1;SDS_P2;PMS_P1;PMS_P2;Temp;Humidity;BMP_temperature;BMP_pressure;BME280_temperature;BME280_humidity;BME280_pressure;Samples;Min_cycle;Max_cycle;Signal;HPM_P1;HPM_P2
2024/01/23 00:00:15;;;;;;;;;;;;;;;;;;5036403;28;19909;-22
2024/01/23 00:02:41;;;;;;;;;;;;;;;;;;5035539;28;19913;-21
2024/01/23 00:05:07;;;;;;;;;;;;;;;;;;5036544;28;19994;-21
2024/01/23 00:07:33;;;;;;;;;;;;;;;;;;5036191;28;19909;-22
2024/01/23 00:09:59;;;;;;;;;;;;;;;;;;5036412;28;19909;-22
2024/01/23 00:12:25;;;;;;;;;;;;;;;;;;5036025;28;19913;-22
2024/01/23 00:14:51;;;;;;;;;;;;;;;;;;5036042;28;19920;-21
2024/01/23 00:17:17;;;;;;;;;;;;;;;;;;5036245;28;20005;-21
2024/01/23 00:19:43;;;;;;;;;;;;;;;;;;5036025;28;20317;-20
2024/01/23 00:22:09;;;;;;;;;;;;;;;;;;5034851;28;19909;-21
2024/01/23 00:24:35;;;;;;;;;;;;;;;;;;5036088;28;19913;-22
2024/01/23 00:27:01;;;;;;;;;;;;;;;;;;5035900;28;19909;-22
2024/01/23 00:29:27;;;;;;;;;;;;;;;;;;5034799;28;19971;-20
2024/01/23 00:31:53;;;;;;;;;;;;;;;;;;5035722;28;19913;-20
2024/01/23 00:34:19;;;;;;;;;;;;;;;;;;5035957;28;20285;-19
2024/01/23 00:36:45;;;;;;;;;;;;;;;;;;5035707;28;19910;-20
2024/01/23 00:39:11;;;;;;;;;;;;;;;;;;5035611;28;19916;-22
2024/01/23 00:41:38;;;;;;;;;;;;;;;;;;5034567;28;19966;-21
2024/01/23 00:44:04;;;;;;;;;;;;;;;;;;5035444;28;19967;-22
2024/01/23 00:46:30;;;;;;;;;;;;;;;;;;5035398;28;19913;-22
2024/01/23 00:48:56;;;;;;;;;;;;;;;;;;5035414;28;19909;-22
2024/01/23 00:51:22;;;;;;;;;;;;;;;;;;5035320;28;19956;-21
2024/01/23 00:53:48;;;;;;;;;;;;;;;;;;5035295;28;19913;-21
2024/01/23 00:56:14;;;;;;;;;;;;;;;;;;5035327;28;19952;-22
2024/01/23 00:58:40;;;;;;;;;;;;;;;;;;5035538;28;19935;-21
2024/01/23 01:01:06;;;;;;;;;;;;;;;;;;5035264;28;19909;-23
2024/01/23 01:03:32;;;;;;;;;;;;;;;;;;5035022;28;19921;-21
2024/01/23 01:05:58;;;;;;;;;;;;;;;;;;5035389;28;19917;-22
2024/01/23 01:08:24;;;;;;;;;;;;;;;;;;5034117;28;19909;-23
2024/01/23 01:10:50;;;;;;;;;;;;;;;;;;5035108;28;19921;-22
2024/01/23 01:13:16;;;;;;;;;;;;;;;;;;5034865;28;20319;-21
2024/01/23 01:15:42;;;;;;;;;;;;;;;;;;5034316;28;19913;-21
2024/01/23 01:18:08;;;;;;;;;;;;;;;;;;5034905;28;20043;-21
2024/01/23 01:20:34;;;;;;;;;;;;;;;;;;5035095;28;19909;-20
2024/01/23 01:23:00;;;;;;;;;;;;;;;;;;5034753;28;19913;-21
2024/01/23 01:25:26;;;;;;;;;;;;;;;;;;5034690;28;20332;-22
2024/01/23 01:27:52;;;;;;;;;;;;;;;;;;5034850;28;19941;-21
2024/01/23 01:30:18;;;;;;;;;;;;;;;;;;5035047;28;19959;-21
2024/01/23 01:32:44;;;;;;;;;;;;;;;;;;5033685;28;19995;-21
2024/01/23 01:35:10;;;;;;;;;;;;;;;;;;5034650;28;20261;-20
2024/01/23 01:37:36;;;;;;;;;;;;;;;;;;5034895;28;19910;-23
2024/01/23 01:40:02;;;;;;;;;;;;;;;;;;5033652;28;20016;-25
2024/01/23 01:42:28;;;;;;;;;;;;;;;;;;5034864;28;19973;-29
2024/01/23 01:44:54;;;;;;;;;;;;;;;;;;5034488;28;20370;-28
2024/01/23 01:47:20;;;;;;;;;;;;;;;;;;5034819;28;20336;-26
2024/01/23 01:49:46;;;;;;;;;;;;;;;;;;5034576;28;20305;-24
2024/01/23 01:52:12;;;;;;;;;;;;;;;;;;5034476;28;20356;-23
2024/01/23 01:54:38;;;;;;;;;;;;;;;;;;5034494;28;19917;-23
2024/01/23 01:57:04;;;;;;;;;;;;;;;;;;5034367;28;20268;-26
2024/01/23 01:59:30;;;;;;;;;;;;;;;;;;5034372;28;19995;-24
2024/01/23 02:01:56;;;;;;;;;;;;;;;;;;5034463;28;20279;-28
2024/01/23 02:04:22;;;;;;;;;;;;;;;;;;5034349;28;19968;-27
2024/01/23 02:06:48;;;;;;;;;;;;;;;;;;5034420;28;20293;-26
2024/01/23 02:09:14;;;;;;;;;;;;;;;;;;5034332;28;19909;-26
2024/01/23 02:11:40;;;;;;;;;;;;;;;;;;5034355;28;19948;-25
2024/01/23 02:14:07;;;;;;;;;;;;;;;;;;5034542;28;19909;-25
2024/01/23 02:16:33;;;;;;;;;;;;;;;;;;5034370;28;20321;-26
2024/01/23 02:18:59;;;;;;;;;;;;;;;;;;5034348;28;19913;-22
2024/01/23 02:21:25;;;;;;;;;;;;;;;;;;5034253;28;19923;-25
2024/01/23 02:23:51;;;;;;;;;;;;;;;;;;5034112;28;20000;-23
2024/01/23 02:26:17;;;;;;;;;;;;;;;;;;5036361;28;20331;-25
2024/01/23 02:28:43;;;;;;;;;;;;;;;;;;5038132;28;19939;-25
2024/01/23 02:31:09;;;;;;;;;;;;;;;;;;5038299;28;19910;-28
2024/01/23 02:33:35;;;;;;;;;;;;;;;;;;5037967;28;19949;-23
2024/01/23 02:36:01;;;;;;;;;;;;;;;;;;5038239;28;19920;-25
2024/01/23 02:38:27;;;;;;;;;;;;;;;;;;5037937;28;19909;-21
2024/01/23 02:40:53;;;;;;;;;;;;;;;;;;5037901;28;19992;-33
2024/01/23 02:43:19;;;;;;;;;;;;;;;;;;5037823;28;19915;-26
2024/01/23 02:45:45;;;;;;;;;;;;;;;;;;5038049;28;20328;-31
2024/01/23 02:48:11;;;;;;;;;;;;;;;;;;5038004;28;19999;-32
2024/01/23 02:50:37;;;;;;;;;;;;;;;;;;5037682;28;19952;-25
2024/01/23 02:53:03;;;;;;;;;;;;;;;;;;5038056;28;19920;-23
2024/01/23 02:55:29;;;;;;;;;;;;;;;;;;5037843;28;19923;-29
2024/01/23 02:57:55;;;;;;;;;;;;;;;;;;5037823;28;20209;-23
2024/01/23 03:00:21;;;;;;;;;;;;;;;;;;5037449;28;20302;-29
2024/01/23 03:02:47;;;;;;;;;;;;;;;;;;5037334;28;20299;-25
2024/01/23 03:05:13;;;;;;;;;;;;;;;;;;5037633;28;20344;-21
2024/01/23 03:07:41;;;;;;;;;;;;;;;;;;5036853;28;20218;-27
2024/01/23 03:10:07;;;;;;;;;;;;;;;;;;5037597;28;19967;-25
2024/01/23 03:12:33;;;;;;;;;;;;;;;;;;5037490;28;20007;-24
2024/01/23 03:14:59;;;;;;;;;;;;;;;;;;5037494;28;19971;-28
2024/01/23 03:17:25;;;;;;;;;;;;;;;;;;5037192;28;19963;-26
2024/01/23 03:19:51;;;;;;;;;;;;;;;;;;5037443;28;19916;-23
2024/01/23 03:22:17;;;;;;;;;;;;;;;;;;5037527;28;20283;-22
2024/01/23 03:24:43;;;;;;;;;;;;;;;;;;5037288;28;20365;-23
2024/01/23 03:27:09;;;;;;;;;;;;;;;;;;5037060;28;19910;-23
2024/01/23 03:29:34;;;;;;;;;;;;;;;;;;5037030;28;19909;-26
2024/01/23 03:32:00;;;;;;;;;;;;;;;;;;5036920;28;19909;-30
2024/01/23 03:34:26;;;;;;;;;;;;;;;;;;5036932;28;19909;-29
2024/01/23 03:36:53;;;;;;;;;;;;;;;;;;5036015;28;19948;-29
2024/01/23 03:39:19;;;;;;;;;;;;;;;;;;5036823;28;19982;-30
2024/01/23 03:41:45;;;;;;;;;;;;;;;;;;5036952;28;19909;-23
2024/01/23 03:44:11;;;;;;;;;;;;;;;;;;5036187;28;19913;-25
2024/01/23 03:46:37;;;;;;;;;;;;;;;;;;5036704;28;20061;-25
2024/01/23 03:49:03;;;;;;;;;;;;;;;;;;5036678;28;19913;-24
2024/01/23 03:51:29;;;;;;;;;;;;;;;;;;5036922;28;19920;-23
2024/01/23 03:53:55;;;;;;;;;;;;;;;;;;5036832;28;20248;-26
2024/01/23 03:56:21;;;;;;;;;;;;;;;;;;5036498;28;19917;-31
2024/01/23 03:58:47;;;;;;;;;;;;;;;;;;5036785;28;20297;-27
2024/01/23 04:01:13;;;;;;;;;;;;;;;;;;5035391;28;19985;-25
2024/01/23 04:03:39;;;;;;;;;;;;;;;;;;5036122;28;20371;-24
2024/01/23 04:06:05;;;;;;;;;;;;;;;;;;5036266;28;19987;-25
2024/01/23 04:08:31;;;;;;;;;;;;;;;;;;5036704;28;19920;-24
2024/01/23 04:10:57;;;;;;;;;;;;;;;;;;5036540;28;20010;-26
2024/01/23 04:13:23;;;;;;;;;;;;;;;;;;5036153;28;19909;-26
2024/01/23 04:15:49;;;;;;;;;;;;;;;;;;5036452;28;19915;-26
2024/01/23 04:18:16;;;;;;;;;;;;;;;;;;5036135;28;19995;-26
2024/01/23 04:20:42;;;;;;;;;;;;;;;;;;5036132;28;19919;-30
2024/01/23 04:23:08;;;;;;;;;;;;;;;;;;5036156;28;19909;-26
2024/01/23 04:25:33;;;;;;;;;;;;;;;;;;5036248;28;19913;-27
2024/01/23 04:27:59;;;;;;;;;;;;;;;;;;5035923;28;19909;-25
2024/01/23 04:30:26;;;;;;;;;;;;;;;;;;5035893;28;20220;-24
2024/01/23 04:32:52;;;;;;;;;;;;;;;;;;5036081;28;20311;-24
2024/01/23 04:35:18;;;;;;;;;;;;;;;;;;5036020;28;19952;-28
2024/01/23 04:37:44;;;;;;;;;;;;;;;;;;5035764;28;20348;-23
2024/01/23 04:40:10;;;;;;;;;;;;;;;;;;5035632;28;19916;-29
2024/01/23 04:42:36;;;;;;;;;;;;;;;;;;5035798;28;19936;-27
2024/01/23 04:45:03;;;;;;;;;;;;;;;;;;5035667;28;19967;-23
2024/01/23 04:47:29;;;;;;;;;;;;;;;;;;5035534;28;20366;-26
2024/01/23 04:49:55;;;;;;;;;;;;;;;;;;5034264;28;19909;-28
2024/01/23 04:52:21;;;;;;;;;;;;;;;;;;5035578;28;19909;-27
2024/01/23 04:54:47;;;;;;;;;;;;;;;;;;5035256;28;20036;-28
2024/01/23 04:57:17;;;;;;;;;;;;;;;;;;5035248;28;19913;-25
2024/01/23 04:59:43;;;;;;;;;;;;;;;;;;5035190;28;19913;-28
2024/01/23 05:02:09;;;;;;;;;;;;;;;;;;5034951;28;19916;-27
2024/01/23 05:04:35;;;;;;;;;;;;;;;;;;5035578;28;19960;-24
2024/01/23 05:07:01;;;;;;;;;;;;;;;;;;5035508;28;19909;-23
2024/01/23 05:09:30;;;;;;;;;;;;;;;;;;5034988;28;19920;-29
2024/01/23 05:11:56;;;;;;;;;;;;;;;;;;5034694;28;19908;-22
2024/01/23 05:14:23;;;;;;;;;;;;;;;;;;5035037;28;20226;-28
2024/01/23 05:16:48;;;;;;;;;;;;;;;;;;5034799;28;19995;-25
2024/01/23 05:19:14;;;;;;;;;;;;;;;;;;5035489;28;20002;-25
2024/01/23 05:21:40;;;;;;;;;;;;;;;;;;5034849;28;20262;-24
2024/01/23 05:24:06;;;;;;;;;;;;;;;;;;5034623;28;19920;-26
2024/01/23 05:26:32;;;;;;;;;;;;;;;;;;5034821;28;20251;-27
2024/01/23 05:28:58;;;;;;;;;;;;;;;;;;5035017;28;19913;-26
2024/01/23 05:31:25;;;;;;;;;;;;;;;;;;5034767;28;20315;-28
2024/01/23 05:33:51;;;;;;;;;;;;;;;;;;5034960;28;19955;-28
2024/01/23 05:36:17;;;;;;;;;;;;;;;;;;5034429;28;20290;-23
2024/01/23 05:38:43;;;;;;;;;;;;;;;;;;5034537;28;19913;-23
2024/01/23 05:41:08;;;;;;;;;;;;;;;;;;5033494;28;20306;-25
2024/01/23 05:43:34;;;;;;;;;;;;;;;;;;5034411;28;19941;-27
2024/01/23 05:46:02;;;;;;;;;;;;;;;;;;5034594;28;19924;-24
2024/01/23 05:48:28;;;;;;;;;;;;;;;;;;5033402;28;20252;-25
2024/01/23 05:50:54;;;;;;;;;;;;;;;;;;5034764;28;19966;-24
2024/01/23 05:53:19;;;;;;;;;;;;;;;;;;5034149;28;20363;-27
2024/01/23 05:55:45;;;;;;;;;;;;;;;;;;5034357;28;20010;-23
2024/01/23 05:58:11;;;;;;;;;;;;;;;;;;5034352;28;19920;-26
2024/01/23 06:00:37;;;;;;;;;;;;;;;;;;5033502;28;19910;-24
2024/01/23 06:03:03;;;;;;;;;;;;;;;;;;5033981;28;19990;-27
2024/01/23 06:05:29;;;;;;;;;;;;;;;;;;5033955;28;19913;-22
2024/01/23 06:07:55;;;;;;;;;;;;;;;;;;5034358;28;19909;-23
2024/01/23 06:10:21;;;;;;;;;;;;;;;;;;5033174;28;19913;-24
2024/01/23 06:12:47;;;;;;;;;;;;;;;;;;5034220;28;19909;-28
2024/01/23 06:15:14;;;;;;;;;;;;;;;;;;5034156;28;20299;-25
2024/01/23 06:17:40;;;;;;;;;;;;;;;;;;5034282;28;19936;-23
2024/01/23 06:20:07;;;;;;;;;;;;;;;;;;5034198;28;20293;-26
2024/01/23 06:22:34;;;;;;;;;;;;;;;;;;5033846;28;19920;-28
2024/01/23 06:25:00;;;;;;;;;;;;;;;;;;5034289;28;19978;-25
2024/01/23 06:27:26;;;;;;;;;;;;;;;;;;5034176;28;20274;-27
2024/01/23 06:29:52;;;;;;;;;;;;;;;;;;5032888;28;19917;-27
2024/01/23 06:32:18;;;;;;;;;;;;;;;;;;5033693;28;19913;-26
2024/01/23 06:34:44;;;;;;;;;;;;;;;;;;5033594;28;19925;-25
2024/01/23 06:37:09;;;;;;;;;;;;;;;;;;5034138;28;19936;-24
2024/01/23 06:39:35;;;;;;;;;;;;;;;;;;5032775;28;20212;-27
2024/01/23 06:42:01;;;;;;;;;;;;;;;;;;5032857;28;19909;-29
2024/01/23 06:44:27;;;;;;;;;;;;;;;;;;5032811;28;19913;-28
2024/01/23 06:46:53;;;;;;;;;;;;;;;;;;5033961;28;19910;-27
2024/01/23 06:49:20;;;;;;;;;;;;;;;;;;5033579;28;19963;-26
2024/01/23 06:51:46;;;;;;;;;;;;;;;;;;5033794;28;19945;-27
2024/01/23 06:54:12;;;;;;;;;;;;;;;;;;5033974;28;19909;-28
2024/01/23 06:56:39;;;;;;;;;;;;;;;;;;5033622;28;19909;-25
2024/01/23 06:59:05;;;;;;;;;;;;;;;;;;5033692;28;19929;-27
2024/01/23 07:01:31;;;;;;;;;;;;;;;;;;5032678;28;19909;-27
2024/01/23 07:03:57;;;;;;;;;;;;;;;;;;5033414;28;19921;-25
2024/01/23 07:06:23;;;;;;;;;;;;;;;;;;5033928;28;19913;-22
2024/01/23 07:08:49;;;;;;;;;;;;;;;;;;5033617;28;19920;-32
2024/01/23 07:11:15;;;;;;;;;;;;;;;;;;5033491;28;19996;-24
2024/01/23 07:13:41;;;;;;;;;;;;;;;;;;5035931;28;19948;-26
2024/01/23 07:16:07;;;;;;;;;;;;;;;;;;5035501;28;20252;-26
2024/01/23 07:18:33;;;;;;;;;;;;;;;;;;5036690;28;19913;-24
2024/01/23 07:20:59;;;;;;;;;;;;;;;;;;5036483;28;19992;-25
2024/01/23 07:23:25;;;;;;;;;;;;;;;;;;5036583;28;19909;-31
2024/01/23 07:25:51;;;;;;;;;;;;;;;;;;5035165;28;19913;-27
2024/01/23 07:28:17;;;;;;;;;;;;;;;;;;5036273;28;20333;-30
2024/01/23 07:30:43;;;;;;;;;;;;;;;;;;5036271;28;19913;-29
2024/01/23 07:33:09;;;;;;;;;;;;;;;;;;5036166;28;20256;-29
2024/01/23 07:35:35;;;;;;;;;;;;;;;;;;5035482;28;20324;-25
2024/01/23 07:38:01;;;;;;;;;;;;;;;;;;5036666;28;19959;-27
2024/01/23 07:40:27;;;;;;;;;;;;;;;;;;5036549;28;19909;-25
2024/01/23 07:42:53;;;;;;;;;;;;;;;;;;5036502;28;20378;-22
2024/01/23 07:45:19;;;;;;;;;;;;;;;;;;5036452;28;19912;-27
2024/01/23 07:47:45;;;;;;;;;;;;;;;;;;5036851;28;19999;-23
2024/01/23 07:50:12;;;;;;;;;;;;;;;;;;5036803;28;19971;-26
2024/01/23 07:52:38;;;;;;;;;;;;;;;;;;5036419;28;19910;-26
2024/01/23 07:55:04;;;;;;;;;;;;;;;;;;5036298;28;19909;-21
2024/01/23 07:57:30;;;;;;;;;;;;;;;;;;5036083;28;19964;-25
2024/01/23 07:59:56;;;;;;;;;;;;;;;;;;5035936;28;20244;-25
2024/01/23 08:02:22;;;;;;;;;;;;;;;;;;5035350;28;19955;-25
2024/01/23 08:04:48;;;;;;;;;;;;;;;;;;5036432;28;20225;-25
2024/01/23 08:07:14;;;;;;;;;;;;;;;;;;5036035;28;19920;-27
2024/01/23 08:09:40;;;;;;;;;;;;;;;;;;5036248;28;19920;-25
2024/01/23 08:12:06;;;;;;;;;;;;;;;;;;5035106;28;19910;-25
2024/01/23 08:14:32;;;;;;;;;;;;;;;;;;5036348;28;19920;-25
2024/01/23 08:16:58;;;;;;;;;;;;;;;;;;5035871;28;19909;-27
2024/01/23 08:19:24;;;;;;;;;;;;;;;;;;5035811;28;19971;-29
2024/01/23 08:21:50;;;;;;;;;;;;;;;;;;5035544;28;19910;-24
2024/01/23 08:24:16;;;;;;;;;;;;;;;;;;5035091;28;19913;-23
2024/01/23 08:26:42;;;;;;;;;;;;;;;;;;5035797;28;19944;-30
2024/01/23 08:29:08;;;;;;;;;;;;;;;;;;5034599;28;19948;-29
2024/01/23 08:31:34;;;;;;;;;;;;;;;;;;5035253;28;19963;-23
2024/01/23 08:34:00;;;;;;;;;;;;;;;;;;5035114;28;19913;-20
2024/01/23 08:36:26;;;;;;;;;;;;;;;;;;5035595;28;20281;-25
2024/01/23 08:38:52;;;;;;;;;;;;;;;;;;5035704;28;19932;-25
2024/01/23 08:41:18;;;;;;;;;;;;;;;;;;5035881;28;19920;-31
2024/01/23 08:43:44;;;;;;;;;;;;;;;;;;5035257;28;19914;-30
2024/01/23 08:46:10;;;;;;;;;;;;;;;;;;5035157;28;19979;-26
2024/01/23 08:48:36;;;;;;;;;;;;;;;;;;5035111;28;19920;-29
2024/01/23 08:51:02;;;;;;;;;;;;;;;;;;5035003;28;19928;-24
2024/01/23 08:53:28;;;;;;;;;;;;;;;;;;5034859;28;19917;-23
2024/01/23 08:55:54;;;;;;;;;;;;;;;;;;5034854;28;19974;-27
2024/01/23 08:58:20;;;;;;;;;;;;;;;;;;5034575;28;19909;-22
2024/01/23 09:00:46;;;;;;;;;;;;;;;;;;5033740;28;20004;-26
2024/01/23 09:03:12;;;;;;;;;;;;;;;;;;5034777;28;19975;-24
2024/01/23 09:05:38;;;;;;;;;;;;;;;;;;5034994;28;19956;-26
2024/01/23 09:08:04;;;;;;;;;;;;;;;;;;5034898;28;19916;-27
2024/01/23 09:10:30;;;;;;;;;;;;;;;;;;5034671;28;19909;-26
2024/01/23 09:12:56;;;;;;;;;;;;;;;;;;5034408;28;19909;-26
2024/01/23 09:15:22;;;;;;;;;;;;;;;;;;5034282;28;20320;-25
2024/01/23 09:17:48;;;;;;;;;;;;;;;;;;5034461;28;19910;-21
2024/01/23 09:20:14;;;;;;;;;;;;;;;;;;5034700;28;20272;-26
2024/01/23 09:22:41;;;;;;;;;;;;;;;;;;5034914;28;19909;-27
2024/01/23 09:25:07;;;;;;;;;;;;;;;;;;5034687;28;20255;-29
2024/01/23 09:27:33;;;;;;;;;;;;;;;;;;5034457;28;19939;-26
2024/01/23 09:29:59;;;;;;;;;;;;;;;;;;5034611;28;19913;-25
2024/01/23 09:32:25;;;;;;;;;;;;;;;;;;5034423;28;19909;-27
2024/01/23 09:34:51;;;;;;;;;;;;;;;;;;5034051;28;19909;-26
2024/01/23 09:37:17;;;;;;;;;;;;;;;;;;5034174;28;19935;-27
2024/01/23 09:39:42;;;;;;;;;;;;;;;;;;5034380;28;19943;-27
2024/01/23 09:42:08;;;;;;;;;;;;;;;;;;5034293;28;20351;-27
2024/01/23 09:44:34;;;;;;;;;;;;;;;;;;5033685;28;19913;-26
2024/01/23 09:47:00;;;;;;;;;;;;;;;;;;5033494;28;19963;-23
2024/01/23 09:49:26;;;;;;;;;;;;;;;;;;5033655;28;20000;-30
2024/01/23 09:51:52;;;;;;;;;;;;;;;;;;5033357;28;20378;-28
2024/01/23 09:54:18;;;;;;;;;;;;;;;;;;5033452;28;19936;-31
2024/01/23 09:56:44;;;;;;;;;;;;;;;;;;5033770;28;20245;-26
2024/01/23 09:59:10;;;;;;;;;;;;;;;;;;5033474;28;19910;-25
2024/01/23 10:01:36;;;;;;;;;;;;;;;;;;5033450;28;20279;-22
2024/01/23 10:04:04;;;;;;;;;;;;;;;;;;5033290;28;19921;-23
2024/01/23 10:06:30;;;;;;;;;;;;;;;;;;5033642;28;20038;-23
2024/01/23 10:08:55;;;;;;;;;;;;;;;;;;5033356;28;20219;-23
2024/01/23 10:11:21;;;;;;;;;;;;;;;;;;5033423;28;19924;-24
2024/01/23 10:13:48;;;;;;;;;;;;;;;;;;5033174;28;19909;-30
2024/01/23 10:16:14;;;;;;;;;;;;;;;;;;5033304;28;19909;-24
2024/01/23 10:18:40;;;;;;;;;;;;;;;;;;5033432;28;19953;-23
2024/01/23 10:21:06;;;;;;;;;;;;;;;;;;5033191;28;19996;-23
2024/01/23 10:23:32;;;;;;;;;;;;;;;;;;5033433;28;20235;-25
2024/01/23 10:25:58;;;;;;;;;;;;;;;;;;5033885;28;19991;-27
2024/01/23 10:28:24;;;;;;;;;;;;;;;;;;5033862;28;19913;-22
2024/01/23 10:30:50;;;;;;;;;;;;;;;;;;5033851;28;19920;-24
2024/01/23 10:33:17;;;;;;;;;;;;;;;;;;5033682;28;19909;-23
2024/01/23 10:35:43;;;;;;;;;;;;;;;;;;5033724;28;19917;-22
2024/01/23 10:38:08;;;;;;;;;;;;;;;;;;5034088;28;19936;-26
2024/01/23 10:40:34;;;;;;;;;;;;;;;;;;5032679;28;19909;-27
2024/01/23 10:43:00;;;;;;;;;;;;;;;;;;5033592;28;19916;-26
2024/01/23 10:45:26;;;;;;;;;;;;;;;;;;5033491;28;20308;-24
2024/01/23 10:47:53;;;;;;;;;;;;;;;;;;5036903;28;19974;-28
2024/01/23 10:50:22;;;;;;;;;;;;;;;;;;5037511;28;19909;-27
2024/01/23 10:52:48;;;;;;;;;;;;;;;;;;5037336;28;20310;-28
2024/01/23 10:55:16;;;;;;;;;;;;;;;;;;5037313;28;20028;-25
2024/01/23 10:57:43;;;;;;;;;;;;;;;;;;5037263;28;19909;-29
2024/01/23 11:00:11;;;;;;;;;;;;;;;;;;5037138;28;20224;-25
2024/01/23 11:02:37;;;;;;;;;;;;;;;;;;5036794;28;20321;-28
2024/01/23 11:05:03;;;;;;;;;;;;;;;;;;5037459;28;19917;-24
2024/01/23 11:07:29;;;;;;;;;;;;;;;;;;5037260;28;19917;-23
2024/01/23 11:09:55;;;;;;;;;;;;;;;;;;5037093;28;20411;-23
2024/01/23 11:12:21;;;;;;;;;;;;;;;;;;5037005;28;19996;-26
2024/01/23 11:14:47;;;;;;;;;;;;;;;;;;5037019;28;19909;-25
2024/01/23 11:17:13;;;;;;;;;;;;;;;;;;5036721;28;20335;-27
2024/01/23 11:19:39;;;;;;;;;;;;;;;;;;5037085;28;19983;-27
2024/01/23 11:22:05;;;;;;;;;;;;;;;;;;5036725;28;19917;-28
2024/01/23 11:24:31;;;;;;;;;;;;;;;;;;5036653;28;19953;-28
2024/01/23 11:26:57;;;;;;;;;;;;;;;;;;5036832;28;19916;-23
2024/01/23 11:29:23;;;;;;;;;;;;;;;;;;5036924;28;19956;-27
2024/01/23 11:31:50;;;;;;;;;;;;;;;;;;5036685;28;19932;-27
2024/01/23 11:34:16;;;;;;;;;;;;;;;;;;5036584;28;19920;-29
2024/01/23 11:36:42;;;;;;;;;;;;;;;;;;5036786;28;20007;-24
2024/01/23 11:39:08;;;;;;;;;;;;;;;;;;5036640;28;19920;-31
2024/01/23 11:41:34;;;;;;;;;;;;;;;;;;5036486;28;19909;-26
2024/01/23 11:44:00;;;;;;;;;;;;;;;;;;5036505;28;19916;-21
2024/01/23 11:46:26;;;;;;;;;;;;;;;;;;5036891;28;19967;-30
2024/01/23 11:48:52;;;;;;;;;;;;;;;;;;5036637;28;19915;-25
2024/01/23 11:51:18;;;;;;;;;;;;;;;;;;5036380;28;19909;-23
2024/01/23 11:53:44;;;;;;;;;;;;;;;;;;5035562;28;19909;-29
2024/01/23 11:56:10;;;;;;;;;;;;;;;;;;5036338;28;19962;-24
2024/01/23 11:58:36;;;;;;;;;;;;;;;;;;5035382;28;20287;-26
2024/01/23 12:01:02;;;;;;;;;;;;;;;;;;5035686;28;20207;-24
2024/01/23 12:03:28;;;;;;;;;;;;;;;;;;5033720;28;19978;-29
2024/01/23 12:05:54;;;;;;;;;;;;;;;;;;5035150;28;19913;-23
2024/01/23 12:08:21;;;;;;;;;;;;;;;;;;5035473;28;19908;-27
2024/01/23 12:10:47;;;;;;;;;;;;;;;;;;5034899;28;19928;-25
2024/01/23 12:13:13;;;;;;;;;;;;;;;;;;5034906;28;19916;-28
2024/01/23 12:15:39;;;;;;;;;;;;;;;;;;5034871;28;19917;-23
2024/01/23 12:18:05;;;;;;;;;;;;;;;;;;5035107;28;19935;-30
2024/01/23 12:20:31;;;;;;;;;;;;;;;;;;5035445;28;19909;-29
2024/01/23 12:22:57;;;;;;;;;;;;;;;;;;5035637;28;20260;-28
2024/01/23 12:25:23;;;;;;;;;;;;;;;;;;5035891;28;19921;-30
2024/01/23 12:27:49;;;;;;;;;;;;;;;;;;5035626;28;19909;-26
2024/01/23 12:30:15;;;;;;;;;;;;;;;;;;5035629;28;20278;-23
2024/01/23 12:32:41;;;;;;;;;;;;;;;;;;5034717;28;20355;-25
2024/01/23 12:35:07;;;;;;;;;;;;;;;;;;5035626;28;19917;-26
2024/01/23 12:37:33;;;;;;;;;;;;;;;;;;5035615;28;19952;-28
2024/01/23 12:40:04;;;;;;;;;;;;;;;;;;5035573;28;19909;-28
2024/01/23 12:42:30;;;;;;;;;;;;;;;;;;5035298;28;19936;-24
2024/01/23 12:44:56;;;;;;;;;;;;;;;;;;5035533;28;20300;-24
2024/01/23 12:47:22;;;;;;;;;;;;;;;;;;5035354;28;19920;-27
2024/01/23 12:49:48;;;;;;;;;;;;;;;;;;5035169;28;19916;-24
2024/01/23 12:52:15;;;;;;;;;;;;;;;;;;5035343;28;19929;-26
2024/01/23 12:54:41;;;;;;;;;;;;;;;;;;5035576;28;19909;-26
2024/01/23 12:57:07;;;;;;;;;;;;;;;;;;5035130;28;19955;-30
2024/01/23 12:59:33;;;;;;;;;;;;;;;;;;5035343;28;19914;-30
2024/01/23 13:01:59;;;;;;;;;;;;;;;;;;5035103;28;19988;-27
2024/01/23 13:04:25;;;;;;;;;;;;;;;;;;5034873;28;20287;-28
2024/01/23 13:06:51;;;;;;;;;;;;;;;;;;5034899;28;19916;-25
2024/01/23 13:09:16;;;;;;;;;;;;;;;;;;5035029;28;19996;-28
2024/01/23 13:11:42;;;;;;;;;;;;;;;;;;5035010;28;19913;-22
2024/01/23 13:14:08;;;;;;;;;;;;;;;;;;5034868;28;19928;-28
2024/01/23 13:16:34;;;;;;;;;;;;;;;;;;5034912;28;20213;-24
2024/01/23 13:19:01;;;;;;;;;;;;;;;;;;5035002;28;20012;-26
2024/01/23 13:21:27;;;;;;;;;;;;;;;;;;5034841;28;20392;-24
2024/01/23 13:23:53;;;;;;;;;;;;;;;;;;5034865;28;19956;-25
2024/01/23 13:26:19;;;;;;;;;;;;;;;;;;5034789;28;20268;-25
2024/01/23 13:28:45;;;;;;;;;;;;;;;;;;5034886;28;19909;-31
2024/01/23 13:31:12;;;;;;;;;;;;;;;;;;5034651;28;20306;-26
2024/01/23 13:33:38;;;;;;;;;;;;;;;;;;5034760;28;19923;-28
2024/01/23 13:36:05;;;;;;;;;;;;;;;;;;5034483;28;20008;-24
2024/01/23 13:38:31;;;;;;;;;;;;;;;;;;5034408;28;20378;-27
2024/01/23 13:40:57;;;;;;;;;;;;;;;;;;5034633;28;19917;-29
2024/01/23 13:43:23;;;;;;;;;;;;;;;;;;5034524;28;19921;-30
2024/01/23 13:45:49;;;;;;;;;;;;;;;;;;5034622;28;19913;-30
2024/01/23 13:48:15;;;;;;;;;;;;;;;;;;5034380;28;19956;-29
2024/01/23 13:50:41;;;;;;;;;;;;;;;;;;5034450;28;19977;-27
2024/01/23 13:53:07;;;;;;;;;;;;;;;;;;5034401;28;19915;-27
2024/01/23 13:55:33;;;;;;;;;;;;;;;;;;5034631;28;19967;-24
2024/01/23 13:57:59;;;;;;;;;;;;;;;;;;5034585;28;20289;-29
2024/01/23 14:00:26;;;;;;;;;;;;;;;;;;5034161;28;19910;-26
2024/01/23 14:02:52;;;;;;;;;;;;;;;;;;5033903;28;20039;-27
2024/01/23 14:05:19;;;;;;;;;;;;;;;;;;5034254;28;19912;-27
2024/01/23 14:07:45;;;;;;;;;;;;;;;;;;5034343;28;20030;-27
2024/01/23 14:10:17;;;;;;;;;;;;;;;;;;5034606;28;20328;-27
2024/01/23 14:12:43;;;;;;;;;;;;;;;;;;5034229;28;19924;-24
2024/01/23 14:15:09;;;;;;;;;;;;;;;;;;5034345;28;19920;-24
2024/01/23 14:17:35;;;;;;;;;;;;;;;;;;5034402;28;20248;-27
2024/01/23 14:20:04;;;;;;;;;;;;;;;;;;5034498;28;19951;-28
2024/01/23 14:22:30;;;;;;;;;;;;;;;;;;5036820;28;20229;-31
2024/01/23 14:24:56;;;;;;;;;;;;;;;;;;5038038;28;19913;-28
2024/01/23 14:27:22;;;;;;;;;;;;;;;;;;5037997;28;19909;-25
2024/01/23 14:29:48;;;;;;;;;;;;;;;;;;5037875;28;19910;-24
2024/01/23 14:32:14;;;;;;;;;;;;;;;;;;5036855;28;19910;-29
2024/01/23 14:34:40;;;;;;;;;;;;;;;;;;5038275;28;19921;-27
2024/01/23 14:37:07;;;;;;;;;;;;;;;;;;5038236;28;19936;-27
2024/01/23 14:39:33;;;;;;;;;;;;;;;;;;5036967;28;19913;-27
2024/01/23 14:42:01;;;;;;;;;;;;;;;;;;5038015;28;19963;-29
2024/01/23 14:44:27;;;;;;;;;;;;;;;;;;5038128;28;19917;-27
2024/01/23 14:46:53;;;;;;;;;;;;;;;;;;5038253;28;20407;-24
2024/01/23 14:49:19;;;;;;;;;;;;;;;;;;5037886;28;19909;-23
2024/01/23 14:51:45;;;;;;;;;;;;;;;;;;5037826;28;19909;-22
2024/01/23 14:54:11;;;;;;;;;;;;;;;;;;5037702;28;20000;-27
2024/01/23 14:56:37;;;;;;;;;;;;;;;;;;5037647;28;19916;-28
2024/01/23 14:59:03;;;;;;;;;;;;;;;;;;5037812;28;19953;-27
2024/01/23 15:01:29;;;;;;;;;;;;;;;;;;5037435;28;20267;-23
2024/01/23 15:03:55;;;;;;;;;;;;;;;;;;5037212;28;19921;-24
2024/01/23 15:06:21;;;;;;;;;;;;;;;;;;5037688;28;20406;-27
2024/01/23 15:08:47;;;;;;;;;;;;;;;;;;5037551;28;19913;-25
2024/01/23 15:11:13;;;;;;;;;;;;;;;;;;5037324;28;19913;-25
2024/01/23 15:13:41;;;;;;;;;;;;;;;;;;5037438;28;19967;-26
2024/01/23 15:16:07;;;;;;;;;;;;;;;;;;5037590;28;19928;-26
2024/01/23 15:18:33;;;;;;;;;;;;;;;;;;5037235;28;20019;-28
2024/01/23 15:20:59;;;;;;;;;;;;;;;;;;5037227;28;19970;-27
2024/01/23 15:23:25;;;;;;;;;;;;;;;;;;5037256;28;20011;-27
2024/01/23 15:25:51;;;;;;;;;;;;;;;;;;5036943;28;19913;-33
2024/01/23 15:28:17;;;;;;;;;;;;;;;;;;5036909;28;19941;-25
2024/01/23 15:30:43;;;;;;;;;;;;;;;;;;5036880;28;19914;-27
2024/01/23 15:33:10;;;;;;;;;;;;;;;;;;5035308;28;19920;-26
2024/01/23 15:35:36;;;;;;;;;;;;;;;;;;5036693;28;19917;-27
2024/01/23 15:38:02;;;;;;;;;;;;;;;;;;5036448;28;19910;-26
2024/01/23 15:40:28;;;;;;;;;;;;;;;;;;5036716;28;19932;-24
2024/01/23 15:42:54;;;;;;;;;;;;;;;;;;5036426;28;19909;-27
2024/01/23 15:45:21;;;;;;;;;;;;;;;;;;5036629;28;19946;-30
2024/01/23 15:47:47;;;;;;;;;;;;;;;;;;5036725;28;20343;-25
2024/01/23 15:50:13;;;;;;;;;;;;;;;;;;5036409;28;19944;-28
2024/01/23 15:52:39;;;;;;;;;;;;;;;;;;5036791;28;19913;-33
2024/01/23 15:55:05;;;;;;;;;;;;;;;;;;5036502;28;20025;-30
2024/01/23 15:57:31;;;;;;;;;;;;;;;;;;5036521;28;19920;-25
2024/01/23 15:59:57;;;;;;;;;;;;;;;;;;5036539;28;20348;-29
2024/01/23 16:02:23;;;;;;;;;;;;;;;;;;5036144;28;20336;-26
2024/01/23 16:04:49;;;;;;;;;;;;;;;;;;5036564;28;20213;-26
2024/01/23 16:07:15;;;;;;;;;;;;;;;;;;5036212;28;19966;-28
2024/01/23 16:09:42;;;;;;;;;;;;;;;;;;5035813;28;19909;-24
2024/01/23 16:12:07;;;;;;;;;;;;;;;;;;5035702;28;19909;-25
2024/01/23 16:14:33;;;;;;;;;;;;;;;;;;5035391;28;19952;-28
2024/01/23 16:16:59;;;;;;;;;;;;;;;;;;5034228;28;19909;-26
2024/01/23 16:19:25;;;;;;;;;;;;;;;;;;5034365;28;19996;-28
2024/01/23 16:21:51;;;;;;;;;;;;;;;;;;5035310;28;19948;-24
2024/01/23 16:24:17;;;;;;;;;;;;;;;;;;5035861;28;20365;-22
2024/01/23 16:26:43;;;;;;;;;;;;;;;;;;5035140;28;19917;-25
2024/01/23 16:29:09;;;;;;;;;;;;;;;;;;5035400;28;19963;-26
2024/01/23 16:31:35;;;;;;;;;;;;;;;;;;5035388;28;19944;-28
2024/01/23 16:34:01;;;;;;;;;;;;;;;;;;5034948;28;19979;-28
2024/01/23 16:36:27;;;;;;;;;;;;;;;;;;5035134;28;19917;-25